Time;durP1;ratioP1;P1;durP2;ratioP2;P2;SDS_P1;SDS_P2;PMS_P1;PMS_P2;Temp;Humidity;BMP_temperature;BMP_pressure;BME280_temperature;BME280_humidity;BME280_pressure;Samples;Min_cycle;Max_cycle;Signal;HPM_P1;HPM_P2
2023/03/25 00:00:06;;;;;;;;;;;;;;;17.28;59.40;99928.03;2035561;29;19962;-59
2023/03/25 00:01:12;;;;;;;;;;;;;;;17.29;59.46;99932.28;2028609;29;19927;-59
2023/03/25 00:02:15;;;;;;;;;;;;;;;17.30;59.52;99925.66;2032623;29;20389;-59
2023/03/25 00:03:17;;;;;;;;;;;;;;;17.30;59.68;99931.13;2030531;29;20334;-57
2023/03/25 00:04:20;;;;;;;;;;;;;;;17.29;59.37;99926.84;2025578;29;20635;-58
2023/03/25 00:05:21;;;;;;;;;;;;;;;17.29;59.58;99915.91;2040199;29;20404;-59
2023/03/25 00:06:24;;;;;;;;;;;;;;;17.29;59.55;99927.63;2033766;29;19926;-59
2023/03/25 00:07:25;;;;;;;;;;;;;;;17.29;59.78;99927.63;2030105;29;19924;-59
2023/03/25 00:08:28;;;;;;;;;;;;;;;17.29;59.63;99933.06;2033286;29;20378;-59
2023/03/25 00:09:30;;;;;;;;;;;;;;;17.29;59.37;99922.16;2027388;29;19931;-58
2023/03/25 00:10:33;;;;;;;;;;;;;;;17.29;59.73;99927.63;2032237;29;19927;-59
2023/03/25 00:11:34;;;;;;;;;;;;;;;17.30;59.39;99928.41;2031724;29;20053;-57
2023/03/25 00:12:38;;;;;;;;;;;;;;;17.29;59.65;99929.56;2031265;29;19987;-59
2023/03/25 00:13:41;;;;;;;;;;;;;;;17.29;59.61;99932.28;2031671;29;19938;-58
2023/03/25 00:14:52;;;;;;;;;;;;;;;17.29;59.39;99926.84;2034791;29;19933;-56
2023/03/25 00:15:57;;;;;;;;;;;;;;;17.28;59.51;99926.03;2028399;29;19927;-58
2023/03/25 00:17:01;;;;;;;;;;;;;;;17.28;59.38;99925.28;2020105;29;19951;-58
2023/03/25 00:18:02;;;;;;;;;;;;;;;17.27;59.32;99913.59;2026379;29;20147;-59
2023/03/25 00:19:05;;;;;;;;;;;;;;;17.28;59.24;99919.84;2036363;29;20005;-59
2023/03/25 00:20:08;;;;;;;;;;;;;;;17.28;59.51;99926.03;2038541;29;19973;-58
2023/03/25 00:21:11;;;;;;;;;;;;;;;17.28;59.50;99926.03;2036056;29;20411;-59
2023/03/25 00:22:13;;;;;;;;;;;;;;;17.28;59.33;99925.28;2028535;29;19971;-59
2023/03/25 00:23:15;;;;;;;;;;;;;;;17.29;59.29;99924.09;2030330;29;19928;-59
2023/03/25 00:24:17;;;;;;;;;;;;;;;17.27;59.27;99919.06;2027193;29;20420;-59
2023/03/25 00:25:20;;;;;;;;;;;;;;;17.28;59.14;99915.13;2024313;29;19927;-59
2023/03/25 00:26:22;;;;;;;;;;;;;;;17.28;59.37;99914.38;2024506;29;20274;-59
2023/03/25 00:27:25;;;;;;;;;;;;;;;17.28;59.44;99919.84;2032033;29;19927;-59
2023/03/25 00:28:27;;;;;;;;;;;;;;;17.29;59.03;99924.09;2035149;29;19923;-59
2023/03/25 00:29:30;;;;;;;;;;;;;;;17.28;59.26;99919.84;2037234;29;19935;-59
2023/03/25 00:30:32;;;;;;;;;;;;;;;17.28;59.42;99919.84;2031771;29;19927;-58
2023/03/25 00:31:35;;;;;;;;;;;;;;;17.28;58.96;99925.28;2025320;29;20404;-59
2023/03/25 00:32:38;;;;;;;;;;;;;;;17.28;59.23;99922.56;2026475;29;19927;-59
2023/03/25 00:33:44;;;;;;;;;;;;;;;17.27;59.20;99913.59;2026049;29;19982;-59
2023/03/25 00:34:46;;;;;;;;;;;;;;;17.27;59.12;99921.00;2025602;29;19923;-59
2023/03/25 00:35:51;;;;;;;;;;;;;;;17.28;59.26;99925.28;2031290;29;19977;-57
2023/03/25 00:36:53;;;;;;;;;;;;;;;17.27;59.35;99927.25;2029741;29;19930;-59
2023/03/25 00:37:58;;;;;;;;;;;;;;;17.26;59.18;99927.66;2026930;29;20313;-58
2023/03/25 00:39:00;;;;;;;;;;;;;;;17.28;59.06;99922.56;2028455;29;19963;-59
2023/03/25 00:40:04;;;;;;;;;;;;;;;17.28;59.01;99931.50;2027189;29;19923;-59
2023/03/25 00:41:16;;;;;;;;;;;;;;;17.28;59.20;99930.75;2024424;29;19927;-58
2023/03/25 00:42:24;;;;;;;;;;;;;;;17.27;59.20;99929.97;2016118;29;19934;-57
2023/03/25 00:43:26;;;;;;;;;;;;;;;17.28;59.40;99922.56;2027597;29;19933;-57
2023/03/25 00:44:30;;;;;;;;;;;;;;;17.27;59.33;99923.72;2030313;29;19927;-59
2023/03/25 00:45:31;;;;;;;;;;;;;;;17.27;59.14;99929.97;2033704;29;19927;-59
2023/03/25 00:46:34;;;;;;;;;;;;;;;17.27;59.02;99926.47;2031008;29;20632;-59
2023/03/25 00:47:37;;;;;;;;;;;;;;;17.27;59.35;99934.66;2028092;29;19923;-58
2023/03/25 00:48:41;;;;;;;;;;;;;;;17.27;59.23;99921.00;2025044;29;19927;-57
2023/03/25 00:49:43;;;;;;;;;;;;;;;17.27;59.20;99923.72;2032360;29;19930;-59
2023/03/25 00:50:47;;;;;;;;;;;;;;;17.26;59.08;99924.91;2034543;29;19938;-58
2023/03/25 00:51:49;;;;;;;;;;;;;;;17.27;59.10;99926.47;2037175;29;20344;-58
2023/03/25 00:52:54;;;;;;;;;;;;;;;17.26;59.21;99931.16;2030098;29;19938;-59
2023/03/25 00:53:59;;;;;;;;;;;;;;;17.27;58.86;99923.72;2026458;29;20002;-59
2023/03/25 00:55:01;;;;;;;;;;;;;;;17.26;58.89;99927.66;2026681;29;20286;-59
2023/03/25 00:56:04;;;;;;;;;;;;;;;17.26;58.91;99927.66;2027557;29;20910;-59
2023/03/25 00:57:06;;;;;;;;;;;;;;;17.26;58.87;99936.63;2038675;29;20257;-59
2023/03/25 00:58:08;;;;;;;;;;;;;;;17.26;59.27;99927.66;2037103;29;19934;-59
2023/03/25 00:59:11;;;;;;;;;;;;;;;17.27;59.13;99934.66;2027195;29;20392;-57
2023/03/25 01:00:14;;;;;;;;;;;;;;;17.27;59.21;99934.66;2027930;29;19927;-59
2023/03/25 01:01:22;;;;;;;;;;;;;;;17.26;59.11;99930.38;2026702;29;19926;-59
2023/03/25 01:02:23;;;;;;;;;;;;;;;17.26;59.02;99931.16;2028848;29;20320;-59
2023/03/25 01:03:28;;;;;;;;;;;;;;;17.26;59.11;99924.91;2024332;29;19967;-58
2023/03/25 01:04:30;;;;;;;;;;;;;;;17.26;58.86;99930.38;2028794;29;19931;-58
2023/03/25 01:05:33;;;;;;;;;;;;;;;17.25;59.07;99920.66;2028528;29;19930;-58
2023/03/25 01:06:35;;;;;;;;;;;;;;;17.26;59.04;99933.09;2026182;29;19927;-57
2023/03/25 01:07:38;;;;;;;;;;;;;;;17.26;58.93;99935.84;2028906;29;20063;-59
2023/03/25 01:08:43;;;;;;;;;;;;;;;17.25;59.03;99943.22;2033556;29;19930;-59
2023/03/25 01:09:46;;;;;;;;;;;;;;;17.25;58.83;99932.31;2027606;29;19927;-59
2023/03/25 01:10:48;;;;;;;;;;;;;;;17.25;58.88;99929.59;2032895;29;20447;-56
2023/03/25 01:11:50;;;;;;;;;;;;;;;17.26;58.87;99930.38;2031620;29;19952;-58
2023/03/25 01:12:53;;;;;;;;;;;;;;;17.26;58.78;99922.19;2032574;29;19938;-58
2023/03/25 01:13:58;;;;;;;;;;;;;;;17.26;58.87;99927.66;2032880;29;19986;-59
2023/03/25 01:15:00;;;;;;;;;;;;;;;17.25;59.08;99926.88;2027580;29;20362;-59
2023/03/25 01:16:06;;;;;;;;;;;;;;;17.24;58.92;99925.34;2030784;29;20024;-59
2023/03/25 01:17:09;;;;;;;;;;;;;;;17.26;58.92;99933.09;2032404;29;19926;-58
2023/03/25 01:18:12;;;;;;;;;;;;;;;17.25;58.88;99937.03;2032694;29;19967;-58
2023/03/25 01:19:15;;;;;;;;;;;;;;;17.25;58.98;99937.03;2032470;29;20417;-59
2023/03/25 01:20:17;;;;;;;;;;;;;;;17.26;59.02;99933.88;2020655;29;19979;-59
2023/03/25 01:21:20;;;;;;;;;;;;;;;17.25;59.16;99932.31;2021430;29;20449;-59
2023/03/25 01:22:22;;;;;;;;;;;;;;;17.25;59.12;99926.88;2029066;29;19927;-59
2023/03/25 01:23:24;;;;;;;;;;;;;;;17.24;58.84;99928.06;2026528;29;19927;-58
2023/03/25 01:24:27;;;;;;;;;;;;;;;17.25;58.90;99926.13;2026325;29;19927;-59
2023/03/25 01:25:29;;;;;;;;;;;;;;;17.25;59.02;99926.13;2033281;29;20337;-58
2023/03/25 01:26:31;;;;;;;;;;;;;;;17.25;59.03;99931.56;2037059;29;20308;-59
2023/03/25 01:27:33;;;;;;;;;;;;;;;17.25;58.94;99924.13;2037674;29;20430;-60
2023/03/25 01:28:36;;;;;;;;;;;;;;;17.24;58.79;99924.53;2028448;29;20455;-59
2023/03/25 01:29:38;;;;;;;;;;;;;;;17.25;59.04;99926.13;2025485;29;19927;-59
2023/03/25 01:30:40;;;;;;;;;;;;;;;17.24;58.93;99917.16;2022221;29;19963;-60
2023/03/25 01:31:42;;;;;;;;;;;;;;;17.24;58.80;99925.34;2031311;29;19969;-60
2023/03/25 01:32:45;;;;;;;;;;;;;;;17.24;58.73;99925.34;2035925;29;20305;-59
2023/03/25 01:33:47;;;;;;;;;;;;;;;17.25;59.08;99928.84;2031178;29;19927;-60
2023/03/25 01:34:51;;;;;;;;;;;;;;;17.25;58.70;99928.84;2027776;29;20460;-60
2023/03/25 01:35:53;;;;;;;;;;;;;;;17.24;58.63;99924.53;2034802;29;20411;-59
2023/03/25 01:36:57;;;;;;;;;;;;;;;17.24;58.71;99913.63;2035527;29;19993;-59
2023/03/25 01:37:58;;;;;;;;;;;;;;;17.24;58.60;99913.63;2031973;29;19977;-58
2023/03/25 01:39:03;;;;;;;;;;;;;;;17.24;58.84;99919.09;2026635;29;20006;-60
2023/03/25 01:40:09;;;;;;;;;;;;;;;17.24;58.58;99916.38;2024199;29;19923;-60
2023/03/25 01:41:11;;;;;;;;;;;;;;;17.23;58.98;99921.06;2034460;29;19923;-60
2023/03/25 01:42:13;;;;;;;;;;;;;;;17.23;58.71;99912.09;2033810;29;20758;-59
2023/03/25 01:43:17;;;;;;;;;;;;;;;17.23;58.81;99912.88;2035272;29;19973;-59
2023/03/25 01:44:37;;;;;;;;;;;;;;;17.23;59.04;99917.56;2035236;29;19930;-59
2023/03/25 01:45:39;;;;;;;;;;;;;;;17.23;58.52;99912.88;2035499;29;19930;-59
2023/03/25 01:46:43;;;;;;;;;;;;;;;17.23;58.75;99909.38;2031771;29;20431;-60
2023/03/25 01:47:48;;;;;;;;;;;;;;;17.23;58.50;99912.09;2031366;29;20010;-60
2023/03/25 01:48:50;;;;;;;;;;;;;;;17.22;58.95;99916.78;2030933;29;19927;-60
2023/03/25 01:49:54;;;;;;;;;;;;;;;17.23;58.62;99915.59;2028406;29;19931;-59
2023/03/25 01:50:58;;;;;;;;;;;;;;;17.22;58.87;99916.03;2032167;29;19923;-60
2023/03/25 01:52:03;;;;;;;;;;;;;;;17.22;58.82;99913.28;2034467;29;20341;-60
2023/03/25 01:53:05;;;;;;;;;;;;;;;17.22;58.68;99908.59;2027080;29;20029;-58
2023/03/25 01:54:08;;;;;;;;;;;;;;;17.22;58.63;99913.28;2027855;29;20316;-59
2023/03/25 01:55:10;;;;;;;;;;;;;;;17.22;58.81;99902.38;2033123;29;19927;-59
2023/03/25 01:56:15;;;;;;;;;;;;;;;17.22;58.67;99905.84;2032712;29;20017;-60
2023/03/25 01:57:19;;;;;;;;;;;;;;;17.22;58.71;99899.66;2031953;29;19962;-61
2023/03/25 01:58:23;;;;;;;;;;;;;;;17.22;58.63;99905.09;2029840;29;19923;-59
2023/03/25 01:59:27;;;;;;;;;;;;;;;17.21;58.80;99904.31;2031142;29;19927;-59
2023/03/25 02:00:30;;;;;;;;;;;;;;;17.22;58.56;99905.09;2035443;29;19926;-59
2023/03/25 02:01:33;;;;;;;;;;;;;;;17.21;58.64;99900.81;2024763;29;20328;-60
2023/03/25 02:02:38;;;;;;;;;;;;;;;17.20;58.62;99897.34;2021430;29;19966;-59
2023/03/25 02:03:44;;;;;;;;;;;;;;;17.20;58.63;99905.50;2028787;29;20002;-60
2023/03/25 02:04:57;;;;;;;;;;;;;;;17.21;58.46;99900.81;2029205;29;20258;-59
2023/03/25 02:06:04;;;;;;;;;;;;;;;17.20;58.59;99902.78;2036001;29;19927;-59
2023/03/25 02:07:07;;;;;;;;;;;;;;;17.19;58.16;99898.50;2025641;29;19930;-59
2023/03/25 02:08:09;;;;;;;;;;;;;;;17.21;58.57;99898.09;2031942;29;19934;-59
2023/03/25 02:09:13;;;;;;;;;;;;;;;17.20;58.72;99899.28;2028776;29;19926;-60
2023/03/25 02:10:17;;;;;;;;;;;;;;;17.20;58.55;99902.00;2020591;29;20365;-59
2023/03/25 02:11:19;;;;;;;;;;;;;;;17.19;58.60;99895.75;2024003;29;19991;-59
2023/03/25 02:12:21;;;;;;;;;;;;;;;17.20;58.36;99896.56;2038301;29;19981;-60
2023/03/25 02:13:23;;;;;;;;;;;;;;;17.20;58.56;99891.09;2034941;29;19927;-60
2023/03/25 02:14:28;;;;;;;;;;;;;;;17.20;58.33;99893.81;2034179;29;20375;-61
2023/03/25 02:15:35;;;;;;;;;;;;;;;17.20;58.40;99894.59;2034136;29;20289;-60
2023/03/25 02:16:45;;;;;;;;;;;;;;;17.20;58.42;99896.56;2031765;29;19938;-59
2023/03/25 02:18:05;;;;;;;;;;;;;;;17.19;58.65;99890.31;2031083;29;20274;-59
2023/03/25 02:19:22;;;;;;;;;;;;;;;17.20;58.53;99889.16;2028407;29;19923;-59
2023/03/25 02:20:45;;;;;;;;;;;;;;;17.20;58.54;99893.81;2026450;29;19954;-59
2023/03/25 02:22:00;;;;;;;;;;;;;;;17.20;58.35;99896.56;2012839;29;19927;-59
2023/03/25 02:23:15;;;;;;;;;;;;;;;17.20;58.24;99891.09;2035885;29;20372;-58
2023/03/25 02:24:41;;;;;;;;;;;;;;;17.20;58.52;99896.56;2033098;29;20281;-59
2023/03/25 02:25:55;;;;;;;;;;;;;;;17.20;58.28;99899.28;2030162;29;19927;-59
2023/03/25 02:27:13;;;;;;;;;;;;;;;17.19;58.30;99889.53;2032376;29;19927;-61
2023/03/25 02:28:24;;;;;;;;;;;;;;;17.20;58.40;99888.38;2039673;29;20005;-58
2023/03/25 02:29:35;;;;;;;;;;;;;;;17.19;58.19;99889.53;2017948;29;19924;-58
2023/03/25 02:30:57;;;;;;;;;;;;;;;17.20;58.43;99882.91;2023831;29;19934;-59
2023/03/25 02:32:06;;;;;;;;;;;;;;;17.19;58.14;99893.03;2032593;29;19982;-59
2023/03/25 02:33:24;;;;;;;;;;;;;;;17.19;58.08;99905.91;2018093;29;19924;-59
2023/03/25 02:34:45;;;;;;;;;;;;;;;17.19;58.58;99894.97;2024435;29;19935;-59
2023/03/25 02:35:58;;;;;;;;;;;;;;;17.19;58.10;99890.31;2024723;29;19927;-59
2023/03/25 02:37:14;;;;;;;;;;;;;;;17.19;58.12;99890.31;2031755;29;19933;-59
2023/03/25 02:38:23;;;;;;;;;;;;;;;17.19;58.34;99884.84;2029201;29;19930;-59
2023/03/25 02:39:31;;;;;;;;;;;;;;;17.19;58.48;99887.59;2019700;29;19983;-59
2023/03/25 02:40:36;;;;;;;;;;;;;;;17.20;58.46;99891.09;2020171;29;19994;-61
2023/03/25 02:41:40;;;;;;;;;;;;;;;17.19;58.31;99903.94;2029733;29;19926;-59
2023/03/25 02:42:47;;;;;;;;;;;;;;;17.19;58.35;99894.97;2033795;29;19930;-57
2023/03/25 02:43:53;;;;;;;;;;;;;;;17.19;58.25;99893.03;2030634;29;20293;-57
2023/03/25 02:44:57;;;;;;;;;;;;;;;17.19;58.31;99900.44;2023499;29;20042;-58
2023/03/25 02:46:04;;;;;;;;;;;;;;;17.19;58.05;99889.53;2023998;29;19971;-58
2023/03/25 02:47:08;;;;;;;;;;;;;;;17.19;58.04;99890.31;2022500;29;20054;-58
2023/03/25 02:48:13;;;;;;;;;;;;;;;17.19;58.05;99894.97;2023220;29;20336;-58
2023/03/25 02:49:18;;;;;;;;;;;;;;;17.20;58.21;99902.00;2026330;29;19927;-58
2023/03/25 02:50:23;;;;;;;;;;;;;;;17.19;58.18;99895.75;2031595;29;20297;-59
2023/03/25 02:51:28;;;;;;;;;;;;;;;17.19;58.14;99897.72;2033798;29;20405;-59
2023/03/25 02:52:32;;;;;;;;;;;;;;;17.20;57.96;99899.28;2021956;29;19928;-59
2023/03/25 02:53:37;;;;;;;;;;;;;;;17.20;57.89;99891.09;2016134;29;19966;-58
2023/03/25 02:54:43;;;;;;;;;;;;;;;17.19;58.21;99900.44;2022867;29;19931;-59
2023/03/25 02:55:46;;;;;;;;;;;;;;;17.20;57.98;99902.00;2028918;29;19927;-58
2023/03/25 02:56:49;;;;;;;;;;;;;;;17.19;57.91;99895.75;2026257;29;19978;-57
2023/03/25 02:57:53;;;;;;;;;;;;;;;17.20;58.46;99899.28;2027567;29;20278;-58
2023/03/25 02:58:56;;;;;;;;;;;;;;;17.19;58.24;99894.97;2031229;29;19935;-58
2023/03/25 02:59:58;;;;;;;;;;;;;;;17.19;57.87;99893.03;2024754;29;19927;-56
2023/03/25 03:01:03;;;;;;;;;;;;;;;17.18;58.02;99888.78;2024327;29;19930;-58
2023/03/25 03:02:07;;;;;;;;;;;;;;;17.19;58.11;99895.75;2018457;29;19978;-58
2023/03/25 03:03:11;;;;;;;;;;;;;;;17.19;58.15;99894.97;2013399;29;19924;-58
2023/03/25 03:04:13;;;;;;;;;;;;;;;17.19;58.10;99890.31;2023017;29;20063;-58
2023/03/25 03:05:24;;;;;;;;;;;;;;;17.19;58.02;99882.13;2035529;29;19966;-62
2023/03/25 03:06:27;;;;;;;;;;;;;;;17.18;58.08;99877.06;2035347;29;19966;-59
2023/03/25 03:07:31;;;;;;;;;;;;;;;17.19;58.19;99878.63;2029782;29;19931;-59
2023/03/25 03:08:49;;;;;;;;;;;;;;;17.19;58.00;99881.34;2027420;29;19934;-58
2023/03/25 03:10:00;;;;;;;;;;;;;;;17.19;58.03;99881.34;2036293;29;19977;-58
2023/03/25 03:11:07;;;;;;;;;;;;;;;17.19;57.91;99878.63;2029305;29;19928;-59
2023/03/25 03:12:15;;;;;;;;;;;;;;;17.19;58.08;99875.88;2029978;29;19939;-59
2023/03/25 03:13:21;;;;;;;;;;;;;;;17.19;58.13;99875.88;2029376;29;19927;-58
2023/03/25 03:14:30;;;;;;;;;;;;;;;17.18;58.01;99866.94;2034123;29;19930;-59
2023/03/25 03:15:37;;;;;;;;;;;;;;;17.20;58.00;99872.00;2027643;29;19974;-60
2023/03/25 03:16:42;;;;;;;;;;;;;;;17.19;57.87;99873.16;2025948;29;20396;-59
2023/03/25 03:17:51;;;;;;;;;;;;;;;17.18;58.16;99872.41;2026998;29;20297;-59
2023/03/25 03:18:57;;;;;;;;;;;;;;;17.19;57.81;99878.63;2019888;29;19979;-59
2023/03/25 03:20:04;;;;;;;;;;;;;;;17.19;57.99;99873.16;2023985;29;20420;-57
2023/03/25 03:21:08;;;;;;;;;;;;;;;17.19;57.94;99870.44;2032168;29;19954;-59
2023/03/25 03:22:17;;;;;;;;;;;;;;;17.19;58.05;99873.94;2029541;29;20010;-59
2023/03/25 03:23:23;;;;;;;;;;;;;;;17.19;57.73;99873.16;2030628;29;19927;-58
2023/03/25 03:24:30;;;;;;;;;;;;;;;17.19;57.88;99873.16;2029960;29;19923;-59
2023/03/25 03:25:34;;;;;;;;;;;;;;;17.18;57.75;99868.91;2030311;29;19965;-57
2023/03/25 03:26:38;;;;;;;;;;;;;;;17.18;57.84;99872.41;2030807;29;19927;-58
2023/03/25 03:27:44;;;;;;;;;;;;;;;17.18;57.60;99871.63;2030227;29;19923;-59
2023/03/25 03:28:49;;;;;;;;;;;;;;;17.18;58.20;99872.41;2025707;29;19990;-59
2023/03/25 03:29:53;;;;;;;;;;;;;;;17.17;57.96;99873.56;2030194;29;20394;-58
2023/03/25 03:31:01;;;;;;;;;;;;;;;17.18;57.97;99868.91;2028640;29;19923;-58
2023/03/25 03:32:06;;;;;;;;;;;;;;;17.18;57.67;99866.94;2028703;29;19927;-59
2023/03/25 03:33:14;;;;;;;;;;;;;;;17.18;57.79;99871.63;2035001;29;19926;-59
2023/03/25 03:34:19;;;;;;;;;;;;;;;17.18;57.80;99868.91;2031559;29;20392;-58
2023/03/25 03:35:24;;;;;;;;;;;;;;;17.18;57.80;99858.75;2028593;29;19973;-58
2023/03/25 03:36:29;;;;;;;;;;;;;;;17.18;57.63;99879.81;2025436;29;19977;-59
2023/03/25 03:37:35;;;;;;;;;;;;;;;17.18;57.86;99866.16;2027330;29;19927;-58
2023/03/25 03:38:39;;;;;;;;;;;;;;;17.18;57.55;99861.50;2027031;29;19923;-59
2023/03/25 03:39:46;;;;;;;;;;;;;;;17.18;57.84;99875.13;2033128;29;20436;-59
2023/03/25 03:40:50;;;;;;;;;;;;;;;17.17;57.85;99873.56;2024908;29;19927;-57
2023/03/25 03:41:56;;;;;;;;;;;;;;;17.17;57.64;99870.09;2025273;29;19923;-58
2023/03/25 03:43:00;;;;;;;;;;;;;;;17.18;57.75;99871.63;2029241;29;20385;-58
2023/03/25 03:44:04;;;;;;;;;;;;;;;17.17;57.66;99872.81;2028195;29;19928;-59
2023/03/25 03:45:09;;;;;;;;;;;;;;;17.18;57.72;99879.81;2021787;29;19927;-58
2023/03/25 03:46:15;;;;;;;;;;;;;;;17.18;57.74;99871.63;2020830;29;19923;-58
2023/03/25 03:47:19;;;;;;;;;;;;;;;17.18;57.60;99888.00;2025341;29;19967;-58
2023/03/25 03:48:25;;;;;;;;;;;;;;;17.18;57.90;99871.63;2025445;29;19923;-58
2023/03/25 03:49:29;;;;;;;;;;;;;;;17.17;57.75;99875.53;2029574;29;19957;-58
2023/03/25 03:50:36;;;;;;;;;;;;;;;17.17;57.61;99870.84;2030307;29;19927;-59
2023/03/25 03:51:41;;;;;;;;;;;;;;;17.18;57.51;99874.34;2030749;29;19939;-59
2023/03/25 03:52:46;;;;;;;;;;;;;;;17.16;57.55;99874.75;2030237;29;20393;-58
2023/03/25 03:53:50;;;;;;;;;;;;;;;17.17;57.73;99878.28;2032814;29;19938;-58
2023/03/25 03:54:56;;;;;;;;;;;;;;;17.17;57.51;99878.28;2031581;29;20389;-59
2023/03/25 03:56:02;;;;;;;;;;;;;;;17.17;57.68;99867.34;2028138;29;20445;-59
2023/03/25 03:57:07;;;;;;;;;;;;;;;17.18;57.64;99874.34;2027679;29;20436;-58
2023/03/25 03:58:14;;;;;;;;;;;;;;;17.16;57.64;99869.31;2031587;29;20025;-57
2023/03/25 03:59:20;;;;;;;;;;;;;;;17.17;57.82;99875.53;2030321;29;20009;-59
2023/03/25 04:00:25;;;;;;;;;;;;;;;17.18;57.50;99871.63;2030203;29;19975;-58
2023/03/25 04:01:33;;;;;;;;;;;;;;;17.17;57.60;99875.53;2026592;29;19923;-58
2023/03/25 04:02:37;;;;;;;;;;;;;;;17.17;57.82;99875.53;2018247;29;19928;-58
2023/03/25 04:03:43;;;;;;;;;;;;;;;17.16;57.58;99866.56;2018093;29;19928;-58
2023/03/25 04:04:44;;;;;;;;;;;;;;;17.16;57.56;99860.34;2031751;29;20018;-58
2023/03/25 04:05:51;;;;;;;;;;;;;;;17.17;57.74;99881.00;2031630;29;19934;-57
2023/03/25 04:06:56;;;;;;;;;;;;;;;17.17;57.58;99883.72;2028251;29;19936;-58
2023/03/25 04:08:01;;;;;;;;;;;;;;;17.17;57.44;99861.91;2026932;29;19942;-57
2023/03/25 04:09:09;;;;;;;;;;;;;;;17.16;57.41;99873.97;2028907;29;20361;-59
2023/03/25 04:10:14;;;;;;;;;;;;;;;17.17;57.83;99883.72;2030253;29;19926;-58
2023/03/25 04:11:20;;;;;;;;;;;;;;;17.17;57.61;99872.81;2024390;29;20018;-58
2023/03/25 04:12:25;;;;;;;;;;;;;;;17.16;57.63;99869.31;2032743;29;19950;-58
2023/03/25 04:13:29;;;;;;;;;;;;;;;17.16;57.62;99857.63;2029294;29;19978;-58
2023/03/25 04:14:32;;;;;;;;;;;;;;;17.17;57.57;99868.13;2030475;29;20599;-58
2023/03/25 04:15:34;;;;;;;;;;;;;;;17.16;57.33;99877.50;2030540;29;19973;-58
2023/03/25 04:16:37;;;;;;;;;;;;;;;17.17;57.39;99875.53;2024234;29;19978;-58
2023/03/25 04:17:39;;;;;;;;;;;;;;;17.17;57.51;99881.00;2023731;29;19927;-58
2023/03/25 04:18:42;;;;;;;;;;;;;;;17.16;57.64;99873.97;2027920;29;20376;-58
2023/03/25 04:19:47;;;;;;;;;;;;;;;17.16;57.54;99882.16;2027703;29;19955;-58
2023/03/25 04:20:50;;;;;;;;;;;;;;;17.16;57.38;99882.94;2024677;29;19974;-58
2023/03/25 04:21:52;;;;;;;;;;;;;;;17.16;57.58;99868.53;2030660;29;19934;-59
2023/03/25 04:22:55;;;;;;;;;;;;;;;17.16;57.74;99868.53;2024356;29;20349;-59
2023/03/25 04:24:00;;;;;;;;;;;;;;;17.17;57.46;99870.09;2027130;29;19927;-58
2023/03/25 04:25:02;;;;;;;;;;;;;;;17.16;57.21;99879.44;2033772;29;19960;-58
2023/03/25 04:26:06;;;;;;;;;;;;;;;17.16;57.29;99879.44;2035453;29;19934;-59
2023/03/25 04:27:12;;;;;;;;;;;;;;;17.16;57.26;99879.44;2037312;29;19930;-58
2023/03/25 04:28:16;;;;;;;;;;;;;;;17.15;57.40;99884.13;2034638;29;19977;-59
2023/03/25 04:29:19;;;;;;;;;;;;;;;17.15;57.38;99878.69;2028501;29;20784;-58
2023/03/25 04:30:21;;;;;;;;;;;;;;;17.16;57.50;99887.63;2028763;29;19934;-58
2023/03/25 04:31:24;;;;;;;;;;;;;;;17.14;57.15;99879.84;2024249;29;19931;-57
2023/03/25 04:32:26;;;;;;;;;;;;;;;17.15;57.39;99875.16;2024363;29;19961;-59
2023/03/25 04:33:30;;;;;;;;;;;;;;;17.15;57.32;99881.41;2035695;29;19930;-58
2023/03/25 04:34:32;;;;;;;;;;;;;;;17.15;57.37;99883.34;2028245;29;20038;-58
2023/03/25 04:35:35;;;;;;;;;;;;;;;17.16;57.36;99887.63;2027489;29;20397;-58
2023/03/25 04:36:38;;;;;;;;;;;;;;;17.14;57.21;99871.66;2027503;29;19930;-59
2023/03/25 04:37:40;;;;;;;;;;;;;;;17.15;57.23;99875.16;2024754;29;19927;-56
2023/03/25 04:38:45;;;;;;;;;;;;;;;17.16;57.33;99873.97;2024724;29;19958;-57
2023/03/25 04:39:47;;;;;;;;;;;;;;;17.16;57.43;99873.97;2030656;29;19974;-56
2023/03/25 04:40:49;;;;;;;;;;;;;;;17.15;57.37;99869.72;2028989;29;19931;-57
2023/03/25 04:41:52;;;;;;;;;;;;;;;17.17;57.34;99881.00;2030655;29;19923;-59
2023/03/25 04:42:56;;;;;;;;;;;;;;;17.14;57.37;99871.66;2029528;29;19931;-58
2023/03/25 04:43:58;;;;;;;;;;;;;;;17.14;57.40;99871.66;2027795;29;19927;-57
2023/03/25 04:45:00;;;;;;;;;;;;;;;17.15;57.20;99872.44;2026627;29;19966;-58
2023/03/25 04:46:02;;;;;;;;;;;;;;;17.15;57.07;99873.22;2027355;29;19927;-59
2023/03/25 04:47:06;;;;;;;;;;;;;;;17.15;57.06;99872.44;2031098;29;20278;-58
2023/03/25 04:48:15;;;;;;;;;;;;;;;17.15;57.12;99875.16;2031672;29;19931;-58
2023/03/25 04:49:20;;;;;;;;;;;;;;;17.15;57.39;99877.91;2032552;29;20464;-58
2023/03/25 04:50:23;;;;;;;;;;;;;;;17.14;57.23;99874.38;2026081;29;19923;-58
2023/03/25 04:51:26;;;;;;;;;;;;;;;17.14;57.10;99876.34;2029011;29;19923;-58
2023/03/25 04:52:27;;;;;;;;;;;;;;;17.15;57.09;99875.16;2026682;29;19934;-57
2023/03/25 04:53:30;;;;;;;;;;;;;;;17.15;57.26;99877.91;2026340;29;19928;-58
2023/03/25 04:54:32;;;;;;;;;;;;;;;17.14;57.15;99870.91;2032474;29;20712;-58
2023/03/25 04:55:35;;;;;;;;;;;;;;;17.14;57.13;99879.09;2029388;29;19927;-58
2023/03/25 04:56:38;;;;;;;;;;;;;;;17.14;57.49;99876.34;2028698;29;19927;-59
2023/03/25 04:57:42;;;;;;;;;;;;;;;17.14;57.05;99868.19;2028690;29;19923;-58
2023/03/25 04:58:44;;;;;;;;;;;;;;;17.15;56.96;99877.91;2020654;29;20007;-57
2023/03/25 04:59:46;;;;;;;;;;;;;;;17.14;57.26;99876.34;2016625;29;20401;-58
2023/03/25 05:00:50;;;;;;;;;;;;;;;17.14;57.48;99876.34;2028321;29;19958;-57
2023/03/25 05:01:52;;;;;;;;;;;;;;;17.14;56.99;99870.91;2030191;29;19930;-58
2023/03/25 05:02:54;;;;;;;;;;;;;;;17.14;57.00;99862.72;2030959;29;20301;-58
2023/03/25 05:04:03;;;;;;;;;;;;;;;17.14;56.99;99871.66;2027799;29;20341;-59
2023/03/25 05:05:06;;;;;;;;;;;;;;;17.15;57.28;99872.44;2024757;29;19923;-59
2023/03/25 05:06:10;;;;;;;;;;;;;;;17.13;57.28;99877.53;2026289;29;19975;-57
2023/03/25 05:07:11;;;;;;;;;;;;;;;17.14;57.22;99870.91;2024572;29;20369;-58
2023/03/25 05:08:14;;;;;;;;;;;;;;;17.14;56.88;99870.91;2027065;29;19927;-58
2023/03/25 05:09:17;;;;;;;;;;;;;;;17.13;57.01;99869.34;2031790;29;20396;-58
2023/03/25 05:10:21;;;;;;;;;;;;;;;17.14;57.05;99870.91;2027491;29;20420;-58
2023/03/25 05:11:23;;;;;;;;;;;;;;;17.14;57.21;99876.34;2026575;29;20445;-57
2023/03/25 05:12:26;;;;;;;;;;;;;;;17.14;57.00;99870.91;2027795;29;19923;-57
2023/03/25 05:13:29;;;;;;;;;;;;;;;17.13;56.79;99875.56;2030460;29;20320;-58
2023/03/25 05:14:31;;;;;;;;;;;;;;;17.12;56.92;99868.59;2031032;29;19927;-59
2023/03/25 05:15:38;;;;;;;;;;;;;;;17.13;57.10;99864.66;2031739;29;19927;-57
2023/03/25 05:16:40;;;;;;;;;;;;;;;17.13;57.38;99867.41;2021962;29;19935;-58
2023/03/25 05:17:42;;;;;;;;;;;;;;;17.13;56.98;99874.78;2021226;29;19970;-58
2023/03/25 05:18:45;;;;;;;;;;;;;;;17.12;56.92;99865.84;2031129;29;19934;-57
2023/03/25 05:19:47;;;;;;;;;;;;;;;17.12;56.82;99868.59;2026712;29;19979;-57
2023/03/25 05:20:50;;;;;;;;;;;;;;;17.13;57.26;99878.31;2031946;29;19939;-58
2023/03/25 05:21:51;;;;;;;;;;;;;;;17.13;57.04;99870.13;2028793;29;20429;-59
2023/03/25 05:22:56;;;;;;;;;;;;;;;17.12;56.88;99876.78;2030617;29;20411;-59
2023/03/25 05:24:00;;;;;;;;;;;;;;;17.13;56.92;99869.34;2034158;29;19927;-57
2023/03/25 05:25:05;;;;;;;;;;;;;;;17.12;56.86;99868.59;2028505;29;20082;-58
2023/03/25 05:26:07;;;;;;;;;;;;;;;17.12;56.77;99867.81;2025802;29;19923;-58
2023/03/25 05:27:10;;;;;;;;;;;;;;;17.11;56.90;99867.03;2030860;29;20386;-57
2023/03/25 05:28:12;;;;;;;;;;;;;;;17.12;57.11;99876.00;2028649;29;20632;-58
2023/03/25 05:29:16;;;;;;;;;;;;;;;17.12;56.91;99873.25;2031088;29;20480;-58
2023/03/25 05:30:18;;;;;;;;;;;;;;;17.12;56.95;99878.72;2028315;29;19986;-58
2023/03/25 05:31:21;;;;;;;;;;;;;;;17.12;57.16;99873.25;2032413;29;20435;-58
2023/03/25 05:32:24;;;;;;;;;;;;;;;17.12;56.98;99879.50;2019134;29;19928;-58
2023/03/25 05:33:27;;;;;;;;;;;;;;;17.12;56.99;99884.16;2020865;29;20341;-59
2023/03/25 05:34:29;;;;;;;;;;;;;;;17.12;57.09;99878.72;2028942;29;19931;-59
2023/03/25 05:35:32;;;;;;;;;;;;;;;17.12;56.91;99878.72;2029611;29;19923;-58
2023/03/25 05:36:35;;;;;;;;;;;;;;;17.11;56.80;99883.38;2030406;29;20017;-58